Time;durP1;ratioP1;P1;durP2;ratioP2;P2;SDS_P1;SDS_P2;PMS_P1;PMS_P2;Temp;Humidity;BMP_temperature;BMP_pressure;BME280_temperature;BME280_humidity;BME280_pressure;Samples;Min_cycle;Max_cycle;Signal;HPM_P1;HPM_P2
2023/12/27 00:00:11;;;;;;;;;;;3.60;99.90;;;;;;6247293;23;19920;-72
2023/12/27 00:02:38;;;;;;;;;;;3.60;99.90;;;;;;6247061;23;19927;-71
2023/12/27 00:05:04;;;;;;;;;;;3.70;99.90;;;;;;6247256;23;19927;-71
2023/12/27 00:07:32;;;;;;;;;;;3.60;99.90;;;;;;6247196;23;19920;-71
2023/12/27 00:09:59;;;;;;;;;;;3.70;99.90;;;;;;6254784;23;19919;-71
2023/12/27 00:12:25;;;;;;;;;;;3.60;99.90;;;;;;6270380;23;19926;-70
2023/12/27 00:14:52;;;;;;;;;;;3.60;99.90;;;;;;6249903;23;20537;-71
2023/12/27 00:17:18;;;;;;;;;;;3.60;99.90;;;;;;6247196;23;19976;-71
2023/12/27 00:19:45;;;;;;;;;;;3.50;99.90;;;;;;6247141;23;19970;-71
2023/12/27 00:22:14;;;;;;;;;;;3.50;99.90;;;;;;6247503;23;19919;-71
2023/12/27 00:24:42;;;;;;;;;;;3.50;99.90;;;;;;6247546;23;19919;-72
2023/12/27 07:19:29;;;;;;;;;;;1.20;99.90;;;;;;6194318;22;19920;-72
2023/12/27 07:21:57;;;;;;;;;;;1.20;99.90;;;;;;6247204;23;19920;-72
2023/12/27 07:24:24;;;;;;;;;;;1.20;99.90;;;;;;6247197;23;20301;-73
2023/12/27 07:26:51;;;;;;;;;;;1.20;99.90;;;;;;6247376;23;20347;-73
2023/12/27 07:29:17;;;;;;;;;;;1.20;99.90;;;;;;6247667;23;19920;-73
2023/12/27 07:31:44;;;;;;;;;;;1.30;99.90;;;;;;6247582;23;19919;-73
2023/12/27 07:34:10;;;;;;;;;;;1.30;99.90;;;;;;6248350;23;19926;-74
2023/12/27 07:36:37;;;;;;;;;;;1.30;99.90;;;;;;6247731;23;19926;-74
2023/12/27 07:39:06;;;;;;;;;;;1.40;99.90;;;;;;6247409;23;19919;-73
2023/12/27 07:41:33;;;;;;;;;;;1.40;99.90;;;;;;6247534;23;19920;-73
2023/12/27 07:43:59;;;;;;;;;;;1.50;99.90;;;;;;6247762;23;19919;-74
2023/12/27 07:46:26;;;;;;;;;;;1.40;99.90;;;;;;6248119;23;19924;-74
2023/12/27 07:48:54;;;;;;;;;;;1.40;99.90;;;;;;6247076;23;19920;-75
2023/12/27 07:51:20;;;;;;;;;;;1.50;99.90;;;;;;6246808;23;19927;-73
2023/12/27 07:53:50;;;;;;;;;;;1.50;99.90;;;;;;6247300;23;19930;-72
2023/12/27 07:56:18;;;;;;;;;;;1.50;99.90;;;;;;6247278;23;20315;-72
2023/12/27 07:58:45;;;;;;;;;;;1.50;99.90;;;;;;6247120;23;19951;-73
2023/12/27 08:01:12;;;;;;;;;;;1.50;99.90;;;;;;6247240;23;19920;-73
2023/12/27 08:03:39;;;;;;;;;;;1.50;99.90;;;;;;6247353;23;19973;-73
2023/12/27 08:06:06;;;;;;;;;;;1.40;99.90;;;;;;6247185;23;19928;-74
2023/12/27 08:08:33;;;;;;;;;;;1.50;99.90;;;;;;6247141;23;19941;-73
2023/12/27 08:10:59;;;;;;;;;;;1.60;99.90;;;;;;6247188;23;20331;-74
2023/12/27 08:13:27;;;;;;;;;;;1.50;99.90;;;;;;6246666;23;20354;-74
2023/12/27 08:15:54;;;;;;;;;;;1.70;99.90;;;;;;6246786;23;19923;-74
2023/12/27 08:18:20;;;;;;;;;;;1.70;99.90;;;;;;6247017;23;19919;-75
2023/12/27 08:20:47;;;;;;;;;;;1.80;99.90;;;;;;6247489;23;19923;-75
2023/12/27 08:23:16;;;;;;;;;;;1.80;99.90;;;;;;6246746;23;20243;-75
2023/12/27 08:25:43;;;;;;;;;;;1.80;99.90;;;;;;6246706;23;20247;-75
2023/12/27 08:28:09;;;;;;;;;;;1.80;99.90;;;;;;6247251;23;19920;-74
2023/12/27 08:30:37;;;;;;;;;;;1.70;99.90;;;;;;6247065;23;19930;-74
2023/12/27 08:33:06;;;;;;;;;;;1.70;99.90;;;;;;6247266;23;19955;-77
2023/12/27 08:35:33;;;;;;;;;;;1.80;99.90;;;;;;6248060;23;19943;-76
2023/12/27 08:37:59;;;;;;;;;;;1.80;99.90;;;;;;6246781;23;19920;-73
2023/12/27 08:40:26;;;;;;;;;;;1.90;99.90;;;;;;6246783;23;19924;-73
2023/12/27 08:42:53;;;;;;;;;;;2.00;99.90;;;;;;6246791;23;19919;-72
2023/12/27 08:45:19;;;;;;;;;;;2.00;99.90;;;;;;6246746;23;19942;-73
2023/12/27 08:47:47;;;;;;;;;;;2.10;99.90;;;;;;6246829;23;19924;-72
2023/12/27 08:50:14;;;;;;;;;;;2.20;99.90;;;;;;6246661;23;19927;-74
2023/12/27 08:52:40;;;;;;;;;;;2.40;99.90;;;;;;6246772;23;19926;-74
2023/12/27 08:55:10;;;;;;;;;;;2.50;99.90;;;;;;6246752;23;19926;-76
2023/12/27 08:57:36;;;;;;;;;;;2.60;99.90;;;;;;6246748;23;19927;-75
2023/12/27 09:00:05;;;;;;;;;;;2.70;99.90;;;;;;6246531;23;19920;-75
2023/12/27 09:02:32;;;;;;;;;;;2.70;99.90;;;;;;6246625;23;19920;-75
2023/12/27 09:05:00;;;;;;;;;;;2.60;99.90;;;;;;6246789;23;19919;-75
2023/12/27 09:07:26;;;;;;;;;;;2.50;99.90;;;;;;6246729;23;19930;-75
2023/12/27 09:09:55;;;;;;;;;;;2.40;99.90;;;;;;6245869;23;21202;-75
2023/12/27 09:12:21;;;;;;;;;;;2.40;99.90;;;;;;6246755;23;20002;-75
2023/12/27 09:14:48;;;;;;;;;;;2.40;99.90;;;;;;6246947;23;19927;-76
2023/12/27 09:17:15;;;;;;;;;;;2.40;99.90;;;;;;6246934;23;19920;-74
2023/12/27 09:19:42;;;;;;;;;;;2.40;99.90;;;;;;6246061;23;20258;-74
2023/12/27 09:22:10;;;;;;;;;;;2.50;99.90;;;;;;6246712;23;19920;-76
2023/12/27 09:24:37;;;;;;;;;;;2.60;99.90;;;;;;6246730;23;19930;-74
2023/12/27 09:27:04;;;;;;;;;;;2.80;99.90;;;;;;6246793;23;19971;-73
2023/12/27 09:29:31;;;;;;;;;;;2.90;99.90;;;;;;6246988;23;19919;-75
2023/12/27 09:31:58;;;;;;;;;;;2.90;99.90;;;;;;6247135;23;19923;-75
2023/12/27 09:34:24;;;;;;;;;;;2.90;99.90;;;;;;6246585;23;19920;-74
2023/12/27 09:36:51;;;;;;;;;;;2.90;99.90;;;;;;6246982;23;19919;-75
2023/12/27 09:39:19;;;;;;;;;;;2.80;99.90;;;;;;6246510;23;19920;-76
2023/12/27 09:41:45;;;;;;;;;;;2.90;99.90;;;;;;6246590;23;19919;-76
2023/12/27 09:44:12;;;;;;;;;;;3.00;99.90;;;;;;6246371;23;19919;-75
2023/12/27 09:46:39;;;;;;;;;;;3.60;99.90;;;;;;6246604;23;19927;-77
2023/12/27 09:49:07;;;;;;;;;;;4.20;99.90;;;;;;6246004;23;20318;-77
2023/12/27 09:51:33;;;;;;;;;;;4.70;99.90;;;;;;6246339;23;19919;-76
2023/12/27 09:54:00;;;;;;;;;;;4.90;99.90;;;;;;6246013;23;20358;-77
2023/12/27 09:56:28;;;;;;;;;;;5.00;99.90;;;;;;6246741;23;19924;-77
2023/12/27 09:58:57;;;;;;;;;;;5.10;99.90;;;;;;6248944;23;19920;-77
2023/12/27 10:01:24;;;;;;;;;;;5.20;99.90;;;;;;6247487;23;20354;-76
2023/12/27 10:03:55;;;;;;;;;;;5.10;99.90;;;;;;6246813;23;19920;-76
2023/12/27 10:06:24;;;;;;;;;;;5.00;99.90;;;;;;6246518;23;19920;-76
2023/12/27 10:08:51;;;;;;;;;;;4.90;99.90;;;;;;6246270;23;20313;-76
2023/12/27 10:11:19;;;;;;;;;;;4.90;99.90;;;;;;6247486;23;19919;-77
2023/12/27 10:13:48;;;;;;;;;;;4.70;99.90;;;;;;6247614;23;19926;-77
2023/12/27 10:16:15;;;;;;;;;;;4.50;99.90;;;;;;6250251;23;19950;-75
2023/12/27 10:18:44;;;;;;;;;;;4.40;99.90;;;;;;6248701;23;19955;-76
2023/12/27 10:21:11;;;;;;;;;;;4.50;99.90;;;;;;6248716;23;19926;-76
2023/12/27 10:23:37;;;;;;;;;;;4.50;99.90;;;;;;6250150;23;20263;-78
2023/12/27 10:26:05;;;;;;;;;;;4.50;99.90;;;;;;6250583;23;19999;-75
2023/12/27 10:28:31;;;;;;;;;;;4.50;99.90;;;;;;6248763;23;19947;-74
2023/12/27 10:30:59;;;;;;;;;;;4.50;99.90;;;;;;6249050;23;19927;-75
2023/12/27 10:33:26;;;;;;;;;;;4.60;99.90;;;;;;6248093;23;19927;-75
2023/12/27 10:35:55;;;;;;;;;;;4.70;99.90;;;;;;6248059;23;19923;-76
2023/12/27 10:38:21;;;;;;;;;;;4.80;99.90;;;;;;6247956;23;19920;-75
2023/12/27 10:40:50;;;;;;;;;;;4.80;99.90;;;;;;6248483;23;19946;-76
2023/12/27 10:43:17;;;;;;;;;;;4.80;99.90;;;;;;6248004;23;20454;-76
2023/12/27 10:45:44;;;;;;;;;;;4.80;99.90;;;;;;6248294;23;19988;-75
2023/12/27 10:48:13;;;;;;;;;;;4.90;99.90;;;;;;6247888;23;20254;-76
2023/12/27 10:50:40;;;;;;;;;;;4.80;99.90;;;;;;6248116;23;19942;-77
2023/12/27 10:53:07;;;;;;;;;;;4.80;99.90;;;;;;6248269;23;19930;-76
2023/12/27 10:55:35;;;;;;;;;;;4.80;99.90;;;;;;6247952;23;19920;-76
2023/12/27 10:58:03;;;;;;;;;;;4.90;99.90;;;;;;6248217;23;19926;-76
2023/12/27 11:00:30;;;;;;;;;;;5.10;99.90;;;;;;6247455;23;20393;-76
2023/12/27 11:02:58;;;;;;;;;;;4.80;99.90;;;;;;6248144;23;19920;-76
2023/12/27 11:05:28;;;;;;;;;;;4.90;99.90;;;;;;6248142;23;19966;-75
2023/12/27 11:07:54;;;;;;;;;;;4.90;99.90;;;;;;6248562;23;19966;-76
2023/12/27 11:10:22;;;;;;;;;;;5.00;99.90;;;;;;6248510;23;19969;-75
2023/12/27 11:12:50;;;;;;;;;;;5.10;99.90;;;;;;6248830;23;19974;-77
2023/12/27 11:15:18;;;;;;;;;;;5.20;99.90;;;;;;6251795;23;19919;-79
2023/12/27 11:17:45;;;;;;;;;;;5.20;99.90;;;;;;6250776;23;19919;-79
2023/12/27 11:20:12;;;;;;;;;;;5.30;99.90;;;;;;6261511;23;19942;-79
2023/12/27 11:22:41;;;;;;;;;;;5.40;99.90;;;;;;6255497;23;19920;-80
2023/12/27 11:25:08;;;;;;;;;;;5.50;99.90;;;;;;6251196;23;19990;-76
2023/12/27 11:27:35;;;;;;;;;;;5.70;99.90;;;;;;6256101;23;19920;-76
2023/12/27 11:30:02;;;;;;;;;;;5.60;99.90;;;;;;6247356;23;19958;-77
2023/12/27 11:32:30;;;;;;;;;;;5.70;99.90;;;;;;6250425;23;19919;-78
2023/12/27 11:34:57;;;;;;;;;;;5.80;99.90;;;;;;6249884;23;19920;-78
2023/12/27 11:37:24;;;;;;;;;;;5.90;99.90;;;;;;6249809;23;19926;-77
2023/12/27 11:39:55;;;;;;;;;;;6.00;99.90;;;;;;6248265;23;20247;-77
2023/12/27 11:42:23;;;;;;;;;;;6.00;99.90;;;;;;6248963;23;19920;-75
2023/12/27 11:44:53;;;;;;;;;;;6.10;99.90;;;;;;6248750;23;19930;-76
2023/12/27 11:47:22;;;;;;;;;;;6.20;99.90;;;;;;6249300;23;19919;-76
2023/12/27 11:50:03;;;;;;;;;;;6.30;99.90;;;;;;6248694;23;19951;-75
2023/12/27 11:52:30;;;;;;;;;;;6.50;99.90;;;;;;6247497;23;19943;-75
2023/12/27 11:57:58;;;;;;;;;;;6.70;99.90;;;;;;5145357;27;19918;-72
2023/12/27 12:00:26;;;;;;;;;;;6.90;99.90;;;;;;5111720;28;19935;-72
2023/12/27 12:02:57;;;;;;;;;;;7.20;99.90;;;;;;5115936;28;19924;-73
2023/12/27 12:05:31;;;;;;;;;;;7.20;99.90;;;;;;5115204;28;19924;-76
2023/12/27 12:07:59;;;;;;;;;;;7.40;99.90;;;;;;5116734;28;19931;-77
2023/12/27 12:10:26;;;;;;;;;;;7.50;99.90;;;;;;5118595;28;19931;-77
2023/12/27 12:12:55;;;;;;;;;;;7.70;99.90;;;;;;5118280;28;19928;-75
2023/12/27 12:15:23;;;;;;;;;;;7.90;99.90;;;;;;5117545;28;19927;-76
2023/12/27 12:17:51;;;;;;;;;;;7.90;99.90;;;;;;5114968;28;19957;-76
2023/12/27 12:20:18;;;;;;;;;;;8.00;99.90;;;;;;5121364;27;20408;-76
2023/12/27 12:22:45;;;;;;;;;;;8.20;99.90;;;;;;5115204;27;20015;-75
2023/12/27 12:25:11;;;;;;;;;;;8.20;99.90;;;;;;5115825;28;19930;-76
2023/12/27 12:27:42;;;;;;;;;;;8.30;99.90;;;;;;5115407;28;20352;-75
2023/12/27 12:30:09;;;;;;;;;;;8.30;99.90;;;;;;5116828;28;19928;-75
2023/12/27 12:32:40;;;;;;;;;;;8.50;99.90;;;;;;5116538;28;19973;-74
2023/12/27 12:35:08;;;;;;;;;;;8.50;99.90;;;;;;5114120;27;19924;-74
2023/12/27 12:37:35;;;;;;;;;;;9.30;99.90;;;;;;5112870;28;19973;-74
2023/12/27 12:40:04;;;;;;;;;;;8.70;99.90;;;;;;5111480;28;19924;-75
2023/12/27 12:42:33;;;;;;;;;;;9.00;99.90;;;;;;5112427;28;19971;-74
2023/12/27 12:45:00;;;;;;;;;;;8.90;99.90;;;;;;5111207;28;20286;-74
2023/12/27 12:47:26;;;;;;;;;;;9.00;99.90;;;;;;5112147;28;19924;-74
2023/12/27 12:49:54;;;;;;;;;;;9.00;99.90;;;;;;5111177;28;19931;-74
2023/12/27 12:52:21;;;;;;;;;;;9.00;99.90;;;;;;5111523;28;19931;-76
2023/12/27 12:54:48;;;;;;;;;;;9.10;99.90;;;;;;5111045;28;19924;-75
2023/12/27 12:57:15;;;;;;;;;;;9.10;99.90;;;;;;5111495;28;19971;-75
2023/12/27 12:59:42;;;;;;;;;;;9.30;99.90;;;;;;5111065;28;19924;-75
2023/12/27 13:02:08;;;;;;;;;;;9.20;99.90;;;;;;5110988;28;19924;-75
2023/12/27 13:04:38;;;;;;;;;;;9.10;99.90;;;;;;5111734;28;19924;-75
2023/12/27 13:07:07;;;;;;;;;;;9.10;99.90;;;;;;5110326;27;19924;-75
2023/12/27 13:09:48;;;;;;;;;;;9.00;99.90;;;;;;5097691;28;20262;-74
2023/12/27 13:12:16;;;;;;;;;;;8.90;99.90;;;;;;5096954;28;19931;-74
2023/12/27 13:14:42;;;;;;;;;;;8.80;99.90;;;;;;5097381;28;20405;-73
2023/12/27 13:17:09;;;;;;;;;;;8.60;99.90;;;;;;5097194;28;19932;-73
2023/12/27 13:19:35;;;;;;;;;;;8.60;99.90;;;;;;5096644;28;19924;-73
2023/12/27 13:22:02;;;;;;;;;;;8.60;99.90;;;;;;5097208;28;20310;-73
2023/12/27 13:24:30;;;;;;;;;;;8.60;99.90;;;;;;5097140;28;19924;-73
2023/12/27 13:26:56;;;;;;;;;;;8.50;99.90;;;;;;5097197;28;19932;-73
2023/12/27 13:29:23;;;;;;;;;;;8.40;99.90;;;;;;5097948;28;19928;-73
2023/12/27 13:31:49;;;;;;;;;;;8.60;99.90;;;;;;5097347;28;19924;-74
2023/12/27 13:34:16;;;;;;;;;;;8.60;99.90;;;;;;5096462;28;20396;-73
2023/12/27 13:36:44;;;;;;;;;;;8.80;99.90;;;;;;5120066;22;19924;-74
2023/12/27 13:39:11;;;;;;;;;;;8.30;99.90;;;;;;5076434;28;19932;-74
2023/12/27 13:41:39;;;;;;;;;;;8.30;99.90;;;;;;5076273;28;19931;-75
2023/12/27 13:44:05;;;;;;;;;;;8.30;99.90;;;;;;5076018;28;20385;-75
2023/12/27 13:46:33;;;;;;;;;;;8.20;99.90;;;;;;5075830;28;19924;-74
2023/12/27 13:48:59;;;;;;;;;;;8.20;99.90;;;;;;5076124;28;19925;-73
2023/12/27 13:51:26;;;;;;;;;;;8.20;99.90;;;;;;5075949;28;19924;-73
2023/12/27 13:53:53;;;;;;;;;;;8.20;99.90;;;;;;5076904;28;19938;-73
2023/12/27 13:56:19;;;;;;;;;;;8.10;99.90;;;;;;5075913;28;19972;-73
2023/12/27 13:58:48;;;;;;;;;;;8.10;99.90;;;;;;5075814;28;19985;-74
2023/12/27 14:01:15;;;;;;;;;;;8.10;99.90;;;;;;5075953;28;19924;-73
2023/12/27 14:03:41;;;;;;;;;;;8.00;99.90;;;;;;5075547;28;20389;-73
2023/12/27 14:06:08;;;;;;;;;;;7.90;99.90;;;;;;5075727;28;19928;-72
2023/12/27 14:08:35;;;;;;;;;;;7.80;99.90;;;;;;5075472;28;19924;-75
2023/12/27 14:11:02;;;;;;;;;;;7.80;99.90;;;;;;5075679;28;20355;-73
2023/12/27 14:13:28;;;;;;;;;;;7.70;99.90;;;;;;5075595;28;19924;-74
2023/12/27 14:15:57;;;;;;;;;;;7.70;99.90;;;;;;5075944;28;19924;-74
2023/12/27 14:18:26;;;;;;;;;;;7.60;99.90;;;;;;5075207;28;19974;-74
2023/12/27 14:20:53;;;;;;;;;;;7.60;99.90;;;;;;5074466;28;20023;-73
2023/12/27 14:23:19;;;;;;;;;;;7.50;99.90;;;;;;5075491;28;20447;-72
2023/12/27 14:25:46;;;;;;;;;;;7.30;99.90;;;;;;5075716;28;19925;-72
2023/12/27 14:28:13;;;;;;;;;;;7.30;99.90;;;;;;5075755;28;19978;-73
2023/12/27 14:30:41;;;;;;;;;;;7.20;99.90;;;;;;5075509;28;19928;-71
2023/12/27 14:33:09;;;;;;;;;;;7.10;99.90;;;;;;5074492;28;19924;-73
2023/12/27 14:35:36;;;;;;;;;;;7.10;99.90;;;;;;5075188;28;19925;-72
2023/12/27 14:38:02;;;;;;;;;;;7.00;99.90;;;;;;5075088;28;20377;-72
2023/12/27 14:40:30;;;;;;;;;;;7.00;99.90;;;;;;5075524;28;19924;-71
2023/12/27 14:42:57;;;;;;;;;;;6.80;99.90;;;;;;5075110;28;19967;-72
2023/12/27 14:45:25;;;;;;;;;;;6.80;99.90;;;;;;5075205;28;20377;-71
2023/12/27 14:47:51;;;;;;;;;;;6.60;99.90;;;;;;5074968;28;20293;-71
2023/12/27 14:50:19;;;;;;;;;;;6.50;99.90;;;;;;5075040;28;20385;-71
2023/12/27 14:52:46;;;;;;;;;;;6.40;99.90;;;;;;5075031;28;19925;-71
2023/12/27 14:55:13;;;;;;;;;;;6.30;99.90;;;;;;5075262;28;19972;-70
2023/12/27 14:57:39;;;;;;;;;;;6.20;99.90;;;;;;5075211;28;19928;-70
2023/12/27 15:00:07;;;;;;;;;;;6.10;99.90;;;;;;5077507;28;19925;-71
2023/12/27 15:02:33;;;;;;;;;;;6.00;99.90;;;;;;5076920;28;19924;-70
2023/12/27 15:05:00;;;;;;;;;;;5.80;99.90;;;;;;5075449;28;19924;-70
2023/12/27 15:07:28;;;;;;;;;;;5.70;99.90;;;;;;5075739;28;19932;-68
2023/12/27 15:09:55;;;;;;;;;;;5.70;99.90;;;;;;5075240;28;19924;-69
2023/12/27 15:12:21;;;;;;;;;;;5.50;99.90;;;;;;5075590;28;20324;-71
2023/12/27 15:14:48;;;;;;;;;;;5.40;99.90;;;;;;5075322;28;19924;-71
2023/12/27 15:17:15;;;;;;;;;;;5.20;99.90;;;;;;5075267;28;20015;-72
2023/12/27 15:19:41;;;;;;;;;;;5.20;99.90;;;;;;5075942;28;19935;-71
2023/12/27 15:22:08;;;;;;;;;;;5.10;99.90;;;;;;5075524;28;19929;-71
2023/12/27 15:24:36;;;;;;;;;;;5.00;99.90;;;;;;5074899;28;19924;-72
2023/12/27 15:27:02;;;;;;;;;;;4.90;99.90;;;;;;5074004;28;20385;-70
2023/12/27 15:29:30;;;;;;;;;;;4.80;99.90;;;;;;5075273;28;19930;-71
2023/12/27 15:31:57;;;;;;;;;;;4.60;99.90;;;;;;5075099;28;19970;-70
2023/12/27 15:34:24;;;;;;;;;;;4.60;99.90;;;;;;5074781;28;19924;-71
2023/12/27 15:36:50;;;;;;;;;;;4.50;99.90;;;;;;5077493;28;19982;-71
2023/12/27 15:39:17;;;;;;;;;;;4.40;99.90;;;;;;5079977;28;19932;-71
2023/12/27 15:41:45;;;;;;;;;;;4.30;99.90;;;;;;5076102;28;19929;-72
2023/12/27 15:44:12;;;;;;;;;;;4.20;99.90;;;;;;5077191;28;19928;-72
2023/12/27 15:46:38;;;;;;;;;;;4.10;99.90;;;;;;5080596;28;19924;-72
2023/12/27 15:49:05;;;;;;;;;;;4.00;99.90;;;;;;5081977;28;19931;-70
2023/12/27 15:51:32;;;;;;;;;;;3.90;99.90;;;;;;5082712;28;19928;-71
2023/12/27 15:53:59;;;;;;;;;;;3.80;99.90;;;;;;5083815;28;19928;-71
2023/12/27 15:56:27;;;;;;;;;;;3.70;99.90;;;;;;5082194;28;20297;-71
2023/12/27 15:58:56;;;;;;;;;;;3.70;99.90;;;;;;5082183;28;19947;-72
2023/12/27 16:01:22;;;;;;;;;;;3.60;99.90;;;;;;5082545;28;19935;-70
2023/12/27 16:03:50;;;;;;;;;;;3.50;99.90;;;;;;5080445;28;19925;-70
2023/12/27 16:06:18;;;;;;;;;;;3.40;99.90;;;;;;5080011;28;19925;-71
2023/12/27 16:08:45;;;;;;;;;;;3.30;99.90;;;;;;5079433;28;19931;-70
2023/12/27 16:11:11;;;;;;;;;;;3.20;99.90;;;;;;5079851;28;19929;-70
2023/12/27 16:13:38;;;;;;;;;;;3.20;99.90;;;;;;5082617;28;19932;-70
2023/12/27 16:16:07;;;;;;;;;;;3.10;99.90;;;;;;5083046;28;19924;-70
2023/12/27 16:18:34;;;;;;;;;;;3.00;99.90;;;;;;5082766;28;19948;-70
2023/12/27 16:21:01;;;;;;;;;;;3.00;99.90;;;;;;5082301;28;19982;-71
2023/12/27 16:23:28;;;;;;;;;;;2.90;99.90;;;;;;5081959;28;19924;-72
2023/12/27 16:25:56;;;;;;;;;;;2.90;99.90;;;;;;5081275;28;19971;-71
2023/12/27 16:28:23;;;;;;;;;;;2.80;99.90;;;;;;5080602;28;19931;-71
2023/12/27 16:30:49;;;;;;;;;;;2.70;99.90;;;;;;5080408;28;19928;-72
2023/12/27 16:33:17;;;;;;;;;;;2.70;99.90;;;;;;5078683;28;19924;-72
2023/12/27 16:35:44;;;;;;;;;;;2.60;99.90;;;;;;5074265;28;19954;-72
2023/12/27 16:38:11;;;;;;;;;;;2.60;99.90;;;;;;5074388;28;19924;-71
2023/12/27 16:40:38;;;;;;;;;;;2.50;99.90;;;;;;5074556;28;19984;-71
2023/12/27 16:43:05;;;;;;;;;;;2.50;99.90;;;;;;5075057;28;19925;-71
2023/12/27 16:45:32;;;;;;;;;;;2.40;99.90;;;;;;5077700;28;20285;-71
2023/12/27 16:48:00;;;;;;;;;;;2.40;99.90;;;;;;5077201;28;20305;-71
2023/12/27 16:50:28;;;;;;;;;;;2.30;99.90;;;;;;5077091;28;19924;-71
2023/12/27 16:52:55;;;;;;;;;;;2.20;99.90;;;;;;5077352;28;20389;-71
2023/12/27 16:55:22;;;;;;;;;;;2.20;99.90;;;;;;5079058;28;20094;-72
2023/12/27 16:57:48;;;;;;;;;;;2.20;99.90;;;;;;5080906;28;19924;-72
2023/12/27 17:00:15;;;;;;;;;;;2.10;99.90;;;;;;5079584;28;19931;-72
2023/12/27 17:02:42;;;;;;;;;;;2.10;99.90;;;;;;5077694;28;19931;-72
2023/12/27 17:05:11;;;;;;;;;;;2.10;99.90;;;;;;5077593;28;19978;-72
2023/12/27 17:07:39;;;;;;;;;;;2.10;99.90;;;;;;5076935;28;20263;-72
2023/12/27 17:10:08;;;;;;;;;;;2.00;99.90;;;;;;5076947;28;19925;-72
2023/12/27 17:12:35;;;;;;;;;;;2.00;99.90;;;;;;5076920;28;19929;-71
2023/12/27 17:15:02;;;;;;;;;;;2.00;99.90;;;;;;5076839;28;19960;-71
2023/12/27 17:17:29;;;;;;;;;;;1.90;99.90;;;;;;5076643;28;19924;-72
2023/12/27 17:19:56;;;;;;;;;;;1.90;99.90;;;;;;5076910;28;19929;-71
2023/12/27 17:22:23;;;;;;;;;;;1.90;99.90;;;;;;5077033;28;19928;-71
2023/12/27 17:24:50;;;;;;;;;;;1.90;99.90;;;;;;5076746;28;19932;-70
2023/12/27 17:27:17;;;;;;;;;;;1.80;99.90;;;;;;5076582;28;19928;-70
2023/12/27 17:29:44;;;;;;;;;;;1.80;99.90;;;;;;5076640;28;19925;-70
2023/12/27 17:32:10;;;;;;;;;;;1.70;99.90;;;;;;5076563;28;19932;-71
2023/12/27 17:34:37;;;;;;;;;;;1.70;99.90;;;;;;5082411;28;19959;-70
2023/12/27 17:37:03;;;;;;;;;;;1.60;99.90;;;;;;5082004;28;19924;-69
2023/12/27 17:39:42;;;;;;;;;;;1.60;99.90;;;;;;5080694;28;19924;-70
2023/12/27 17:42:16;;;;;;;;;;;1.50;99.90;;;;;;5077586;28;19946;-69
2023/12/27 17:44:45;;;;;;;;;;;1.50;99.90;;;;;;5077514;28;19924;-69
2023/12/27 17:47:14;;;;;;;;;;;1.50;99.90;;;;;;5078432;28;20348;-69
2023/12/27 17:49:41;;;;;;;;;;;1.40;99.90;;;;;;5078460;28;19978;-71
2023/12/27 17:52:11;;;;;;;;;;;1.30;99.90;;;;;;5078275;28;20305;-70
2023/12/27 17:54:45;;;;;;;;;;;1.30;99.90;;;;;;5078121;28;19925;-69
2023/12/27 17:57:24;;;;;;;;;;;1.20;99.90;;;;;;5078179;28;19978;-69
2023/12/27 17:59:55;;;;;;;;;;;1.20;99.90;;;;;;5077734;28;19933;-70
2023/12/27 18:02:28;;;;;;;;;;;1.10;99.90;;;;;;5077081;28;19924;-71
2023/12/27 18:04:58;;;;;;;;;;;1.10;99.90;;;;;;5077156;28;20019;-72
2023/12/27 18:07:34;;;;;;;;;;;1.00;99.90;;;;;;5077483;28;19925;-71
2023/12/27 18:10:08;;;;;;;;;;;1.00;99.90;;;;;;5078166;28;19925;-73
2023/12/27 18:12:40;;;;;;;;;;;0.90;99.90;;;;;;5077890;28;20022;-71
2023/12/27 18:15:08;;;;;;;;;;;0.80;99.90;;;;;;5076895;28;20007;-72
2023/12/27 18:17:44;;;;;;;;;;;0.80;99.90;;;;;;5076008;28;19924;-72
2023/12/27 18:20:13;;;;;;;;;;;0.80;99.90;;;;;;5075439;28;20008;-72
2023/12/27 18:22:40;;;;;;;;;;;0.80;99.90;;;;;;5075274;28;19974;-72
2023/12/27 18:25:07;;;;;;;;;;;0.80;99.90;;;;;;5076023;28;19931;-73
2023/12/27 18:27:33;;;;;;;;;;;0.80;99.90;;;;;;5077659;28;19935;-72
2023/12/27 18:30:00;;;;;;;;;;;0.70;99.90;;;;;;5077226;28;19924;-72
2023/12/27 18:32:28;;;;;;;;;;;0.70;99.90;;;;;;5077507;28;20039;-71
2023/12/27 18:34:55;;;;;;;;;;;0.70;99.90;;;;;;5077184;28;19964;-73
2023/12/27 18:37:22;;;;;;;;;;;0.60;99.90;;;;;;5075818;28;20282;-73
2023/12/27 18:39:49;;;;;;;;;;;0.60;99.90;;;;;;5076038;28;19924;-72
2023/12/27 18:42:16;;;;;;;;;;;0.60;99.90;;;;;;5075986;28;19924;-71
2023/12/27 18:44:43;;;;;;;;;;;0.50;99.90;;;;;;5076424;28;19930;-72
2023/12/27 18:47:12;;;;;;;;;;;0.50;99.90;;;;;;5076061;28;19971;-73
2023/12/27 18:49:39;;;;;;;;;;;0.50;99.90;;;;;;5076082;28;20031;-72
2023/12/27 18:52:06;;;;;;;;;;;0.40;99.90;;;;;;5076166;28;19982;-73
2023/12/27 18:54:33;;;;;;;;;;;0.40;99.90;;;;;;5075152;28;20352;-73
2023/12/27 18:57:00;;;;;;;;;;;0.40;99.90;;;;;;5075896;28;19978;-73
2023/12/27 18:59:27;;;;;;;;;;;0.40;99.90;;;;;;5075227;28;20018;-73
2023/12/27 19:01:54;;;;;;;;;;;0.30;99.90;;;;;;5075061;28;20494;-73
2023/12/27 19:04:22;;;;;;;;;;;0.30;99.90;;;;;;5074541;28;19925;-72
2023/12/27 19:06:48;;;;;;;;;;;0.30;99.90;;;;;;5074013;28;19924;-73
2023/12/27 19:09:15;;;;;;;;;;;0.30;99.90;;;;;;5074825;28;19928;-72
2023/12/27 19:11:41;;;;;;;;;;;0.30;99.90;;;;;;5075180;28;19932;-72
2023/12/27 19:14:08;;;;;;;;;;;0.20;99.90;;;;;;5074912;28;19924;-72
2023/12/27 19:16:35;;;;;;;;;;;0.20;99.90;;;;;;5074714;28;19925;-72
2023/12/27 19:19:01;;;;;;;;;;;0.20;99.90;;;;;;5074126;28;19925;-71
2023/12/27 19:21:29;;;;;;;;;;;0.20;99.90;;;;;;5074246;28;20023;-71
2023/12/27 19:23:56;;;;;;;;;;;0.20;99.90;;;;;;5074411;28;20407;-71
2023/12/27 19:26:23;;;;;;;;;;;0.10;99.90;;;;;;5074413;28;19963;-71
2023/12/27 19:28:50;;;;;;;;;;;0.10;99.90;;;;;;5074961;28;19932;-72
2023/12/27 19:31:17;;;;;;;;;;;0.10;99.90;;;;;;5076118;28;20003;-71
2023/12/27 19:33:44;;;;;;;;;;;0.10;99.90;;;;;;5075896;28;20007;-71
2023/12/27 19:36:10;;;;;;;;;;;0.00;99.90;;;;;;5075638;28;19924;-71
2023/12/27 19:38:38;;;;;;;;;;;0.00;99.90;;;;;;5075876;28;19930;-71
2023/12/27 19:41:05;;;;;;;;;;;0.00;99.90;;;;;;5075873;28;19929;-71
2023/12/27 19:43:32;;;;;;;;;;;0.00;99.90;;;;;;5076349;28;19924;-72
2023/12/27 19:45:59;;;;;;;;;;;0.00;99.90;;;;;;5076083;28;19924;-71
2023/12/27 19:48:26;;;;;;;;;;;-0.10;99.90;;;;;;5075998;28;19931;-71
2023/12/27 19:50:52;;;;;;;;;;;-0.10;99.90;;;;;;5075726;28;19979;-71
2023/12/27 19:53:19;;;;;;;;;;;-0.10;99.90;;;;;;5075639;28;19990;-71
2023/12/27 19:55:48;;;;;;;;;;;-0.10;99.90;;;;;;5075989;28;19984;-72
2023/12/27 19:58:14;;;;;;;;;;;-0.10;99.90;;;;;;5075392;28;19939;-71
2023/12/27 20:00:41;;;;;;;;;;;-0.10;99.90;;;;;;5075634;28;20278;-72
2023/12/27 20:03:08;;;;;;;;;;;-0.10;99.90;;;;;;5075733;28;19924;-72
2023/12/27 20:05:34;;;;;;;;;;;-0.20;99.90;;;;;;5075921;28;19925;-71
2023/12/27 20:08:01;;;;;;;;;;;-0.20;99.90;;;;;;5075701;28;19924;-71
2023/12/27 20:10:27;;;;;;;;;;;-0.20;99.90;;;;;;5075666;28;19925;-71
2023/12/27 20:12:59;;;;;;;;;;;-0.20;99.90;;;;;;5075789;28;19928;-71
2023/12/27 20:15:26;;;;;;;;;;;-0.20;99.90;;;;;;5075640;28;19931;-71
2023/12/27 20:17:53;;;;;;;;;;;-0.30;99.90;;;;;;5076712;28;19931;-71
2023/12/27 20:20:20;;;;;;;;;;;-0.30;99.90;;;;;;5079454;28;19935;-71
2023/12/27 20:22:47;;;;;;;;;;;-0.40;99.90;;;;;;5079869;28;19924;-71
2023/12/27 20:25:13;;;;;;;;;;;-0.40;99.90;;;;;;5079450;28;19925;-71
2023/12/27 20:27:40;;;;;;;;;;;-0.40;99.90;;;;;;5079171;28;20293;-71
2023/12/27 20:30:08;;;;;;;;;;;-0.40;99.90;;;;;;5079464;28;19932;-71
2023/12/27 20:32:35;;;;;;;;;;;-0.40;99.90;;;;;;5079421;28;20275;-70
2023/12/27 20:35:02;;;;;;;;;;;-0.40;99.90;;;;;;5079019;28;19932;-71
2023/12/27 20:37:31;;;;;;;;;;;-0.40;99.90;;;;;;5078747;28;19925;-71
2023/12/27 20:39:59;;;;;;;;;;;-0.50;99.90;;;;;;5079324;28;19931;-72
2023/12/27 20:42:25;;;;;;;;;;;-0.50;99.90;;;;;;5079184;28;19974;-72
2023/12/27 20:44:52;;;;;;;;;;;-0.50;99.90;;;;;;5079131;28;20378;-71
2023/12/27 20:49:45;;;;;;;;;;;-0.50;99.90;;;;;;5115169;23;19978;-76
2023/12/27 20:52:12;;;;;;;;;;;-0.60;99.90;;;;;;5082647;28;19924;-76
2023/12/27 20:54:38;;;;;;;;;;;-0.50;99.90;;;;;;5084257;28;19932;-77
2023/12/27 20:57:05;;;;;;;;;;;-0.60;99.90;;;;;;5086011;28;19932;-77
2023/12/27 20:59:32;;;;;;;;;;;-0.50;99.90;;;;;;5084093;28;19925;-77
2023/12/27 21:01:58;;;;;;;;;;;-0.50;99.90;;;;;;5084315;28;19924;-77
2023/12/27 21:04:25;;;;;;;;;;;-0.60;99.90;;;;;;5083476;28;19966;-77
2023/12/27 21:06:53;;;;;;;;;;;-0.60;99.90;;;;;;5080905;28;19924;-78
2023/12/27 21:09:20;;;;;;;;;;;-0.60;99.90;;;;;;5082288;28;19925;-78
2023/12/27 21:11:46;;;;;;;;;;;-0.60;99.90;;;;;;5081815;28;19925;-78
2023/12/27 21:14:13;;;;;;;;;;;-0.60;99.90;;;;;;5077777;28;19924;-78
2023/12/27 21:16:40;;;;;;;;;;;-0.60;99.90;;;;;;5079067;28;19924;-77
2023/12/27 21:19:06;;;;;;;;;;;-0.60;99.90;;;;;;5082498;28;20278;-77
2023/12/27 21:21:33;;;;;;;;;;;-0.70;99.90;;;;;;5082001;28;20015;-79
2023/12/27 21:24:01;;;;;;;;;;;-0.70;99.90;;;;;;5080904;28;19947;-75
2023/12/27 21:26:27;;;;;;;;;;;-0.80;99.90;;;;;;5080883;28;19925;-75